sensor_id;sensor_type;location;lat;lon;timestamp;P1;durP1;ratioP1;P2;durP2;ratioP2
33190;SDS011;19554;42.652;23.364;2023-02-08T00:01:14;39.55;;;20.63;;
33190;SDS011;19554;42.652;23.364;2023-02-08T00:03:41;36.55;;;20.50;;
33190;SDS011;19554;42.652;23.364;2023-02-08T00:06:07;34.30;;;19.98;;
33190;SDS011;19554;42.652;23.364;2023-02-08T00:08:33;35.35;;;20.10;;
33190;SDS011;19554;42.652;23.364;2023-02-08T00:10:59;39.70;;;20.52;;
33190;SDS011;19554;42.652;23.364;2023-02-08T00:13:25;36.85;;;19.92;;
33190;SDS011;19554;42.652;23.364;2023-02-08T00:15:51;34.97;;;19.65;;
33190;SDS011;19554;42.652;23.364;2023-02-08T00:18:17;34.10;;;19.52;;
33190;SDS011;19554;42.652;23.364;2023-02-08T00:20:43;36.03;;;20.65;;
33190;SDS011;19554;42.652;23.364;2023-02-08T00:23:08;31.63;;;19.15;;
33190;SDS011;19554;42.652;23.364;2023-02-08T00:25:34;34.40;;;20.20;;
33190;SDS011;19554;42.652;23.364;2023-02-08T00:28:00;36.13;;;19.90;;
33190;SDS011;19554;42.652;23.364;2023-02-08T00:30:26;33.35;;;19.05;;
33190;SDS011;19554;42.652;23.364;2023-02-08T00:32:52;34.10;;;19.73;;
33190;SDS011;19554;42.652;23.364;2023-02-08T00:35:17;35.65;;;20.90;;
33190;SDS011;19554;42.652;23.364;2023-02-08T00:37:43;35.55;;;19.67;;
33190;SDS011;19554;42.652;23.364;2023-02-08T00:40:08;33.85;;;19.33;;
33190;SDS011;19554;42.652;23.364;2023-02-08T00:42:34;34.65;;;20.10;;
33190;SDS011;19554;42.652;23.364;2023-02-08T00:45:00;35.17;;;21.10;;
33190;SDS011;19554;42.652;23.364;2023-02-08T00:47:25;27.95;;;17.58;;
33190;SDS011;19554;42.652;23.364;2023-02-08T00:49:51;34.97;;;19.42;;
33190;SDS011;19554;42.652;23.364;2023-02-08T00:52:17;31.70;;;18.40;;
33190;SDS011;19554;42.652;23.364;2023-02-08T00:54:43;33.78;;;19.55;;
33190;SDS011;19554;42.652;23.364;2023-02-08T00:57:08;34.85;;;19.52;;
33190;SDS011;19554;42.652;23.364;2023-02-08T00:59:33;34.38;;;19.35;;
33190;SDS011;19554;42.652;23.364;2023-02-08T01:01:59;35.42;;;19.63;;
33190;SDS011;19554;42.652;23.364;2023-02-08T01:04:24;35.35;;;19.90;;
33190;SDS011;19554;42.652;23.364;2023-02-08T01:06:50;35.03;;;20.23;;
33190;SDS011;19554;42.652;23.364;2023-02-08T01:09:15;34.20;;;20.67;;
33190;SDS011;19554;42.652;23.364;2023-02-08T01:11:41;41.15;;;22.05;;
33190;SDS011;19554;42.652;23.364;2023-02-08T01:14:06;35.55;;;21.27;;
33190;SDS011;19554;42.652;23.364;2023-02-08T01:16:32;37.97;;;20.85;;
33190;SDS011;19554;42.652;23.364;2023-02-08T01:18:58;35.78;;;20.95;;
33190;SDS011;19554;42.652;23.364;2023-02-08T01:21:26;33.15;;;20.50;;
33190;SDS011;19554;42.652;23.364;2023-02-08T01:23:56;38.38;;;22.17;;
33190;SDS011;19554;42.652;23.364;2023-02-08T01:26:23;36.25;;;21.33;;
33190;SDS011;19554;42.652;23.364;2023-02-08T01:28:49;35.85;;;21.17;;
33190;SDS011;19554;42.652;23.364;2023-02-08T01:31:17;37.50;;;21.75;;
33190;SDS011;19554;42.652;23.364;2023-02-08T01:33:45;34.53;;;20.60;;
33190;SDS011;19554;42.652;23.364;2023-02-08T01:36:11;34.55;;;20.08;;
33190;SDS011;19554;42.652;23.364;2023-02-08T01:38:37;34.20;;;20.88;;
33190;SDS011;19554;42.652;23.364;2023-02-08T01:41:03;39.40;;;22.17;;
33190;SDS011;19554;42.652;23.364;2023-02-08T01:43:30;39.28;;;21.75;;
33190;SDS011;19554;42.652;23.364;2023-02-08T01:45:58;38.08;;;21.50;;
33190;SDS011;19554;42.652;23.364;2023-02-08T01:51:12;37.67;;;21.77;;
33190;SDS011;19554;42.652;23.364;2023-02-08T01:53:40;36.92;;;21.38;;
33190;SDS011;19554;42.652;23.364;2023-02-08T01:56:08;41.72;;;22.73;;
33190;SDS011;19554;42.652;23.364;2023-02-08T01:58:40;38.28;;;22.05;;
33190;SDS011;19554;42.652;23.364;2023-02-08T02:01:10;41.67;;;21.92;;
33190;SDS011;19554;42.652;23.364;2023-02-08T02:03:37;39.45;;;22.45;;
33190;SDS011;19554;42.652;23.364;2023-02-08T02:06:14;43.22;;;24.20;;
33190;SDS011;19554;42.652;23.364;2023-02-08T02:08:44;39.85;;;23.63;;
33190;SDS011;19554;42.652;23.364;2023-02-08T02:11:17;39.17;;;22.45;;
33190;SDS011;19554;42.652;23.364;2023-02-08T02:13:44;40.70;;;23.27;;
33190;SDS011;19554;42.652;23.364;2023-02-08T02:16:11;40.40;;;22.08;;
33190;SDS011;19554;42.652;23.364;2023-02-08T02:18:36;40.15;;;23.23;;
33190;SDS011;19554;42.652;23.364;2023-02-08T02:39:34;42.15;;;24.10;;
33190;SDS011;19554;42.652;23.364;2023-02-08T02:42:12;41.90;;;23.35;;
33190;SDS011;19554;42.652;23.364;2023-02-08T02:50:35;44.10;;;25.02;;
33190;SDS011;19554;42.652;23.364;2023-02-08T02:53:11;40.70;;;24.45;;
33190;SDS011;19554;42.652;23.364;2023-02-08T02:56:11;44.00;;;24.10;;
33190;SDS011;19554;42.652;23.364;2023-02-08T02:58:42;47.10;;;25.55;;
33190;SDS011;19554;42.652;23.364;2023-02-08T03:01:09;44.28;;;26.27;;
33190;SDS011;19554;42.652;23.364;2023-02-08T03:03:34;44.28;;;26.23;;
33190;SDS011;19554;42.652;23.364;2023-02-08T03:06:03;44.15;;;26.25;;
33190;SDS011;19554;42.652;23.364;2023-02-08T03:08:54;44.63;;;25.08;;
33190;SDS011;19554;42.652;23.364;2023-02-08T03:11:45;47.10;;;26.70;;
33190;SDS011;19554;42.652;23.364;2023-02-08T03:19:45;46.20;;;26.48;;
33190;SDS011;19554;42.652;23.364;2023-02-08T03:22:24;43.47;;;25.33;;
33190;SDS011;19554;42.652;23.364;2023-02-08T03:25:08;44.42;;;25.30;;
33190;SDS011;19554;42.652;23.364;2023-02-08T03:30:33;48.47;;;28.00;;
33190;SDS011;19554;42.652;23.364;2023-02-08T03:33:20;53.45;;;29.75;;
33190;SDS011;19554;42.652;23.364;2023-02-08T03:35:57;55.92;;;30.05;;
33190;SDS011;19554;42.652;23.364;2023-02-08T03:38:42;56.63;;;29.85;;
33190;SDS011;19554;42.652;23.364;2023-02-08T03:41:12;55.05;;;30.70;;
33190;SDS011;19554;42.652;23.364;2023-02-08T03:43:43;51.47;;;29.92;;
33190;SDS011;19554;42.652;23.364;2023-02-08T03:46:22;58.85;;;31.40;;
33190;SDS011;19554;42.652;23.364;2023-02-08T03:48:51;54.47;;;30.55;;
33190;SDS011;19554;42.652;23.364;2023-02-08T03:51:21;56.15;;;31.65;;
33190;SDS011;19554;42.652;23.364;2023-02-08T03:53:48;53.47;;;30.15;;
33190;SDS011;19554;42.652;23.364;2023-02-08T03:56:19;57.83;;;31.60;;
33190;SDS011;19554;42.652;23.364;2023-02-08T03:58:57;52.17;;;29.73;;
33190;SDS011;19554;42.652;23.364;2023-02-08T04:01:43;58.90;;;31.27;;
33190;SDS011;19554;42.652;23.364;2023-02-08T04:04:14;53.97;;;30.17;;
33190;SDS011;19554;42.652;23.364;2023-02-08T04:06:43;53.20;;;30.27;;
33190;SDS011;19554;42.652;23.364;2023-02-08T04:09:09;56.22;;;31.85;;
33190;SDS011;19554;42.652;23.364;2023-02-08T04:11:34;55.97;;;31.17;;
33190;SDS011;19554;42.652;23.364;2023-02-08T04:14:00;57.13;;;31.52;;
33190;SDS011;19554;42.652;23.364;2023-02-08T04:16:25;49.05;;;28.27;;
33190;SDS011;19554;42.652;23.364;2023-02-08T04:18:51;48.97;;;28.55;;
33190;SDS011;19554;42.652;23.364;2023-02-08T04:21:16;55.35;;;30.38;;
33190;SDS011;19554;42.652;23.364;2023-02-08T04:23:42;55.80;;;29.17;;
33190;SDS011;19554;42.652;23.364;2023-02-08T04:26:07;49.67;;;29.88;;
33190;SDS011;19554;42.652;23.364;2023-02-08T04:28:33;54.75;;;30.08;;
33190;SDS011;19554;42.652;23.364;2023-02-08T04:30:59;56.33;;;30.90;;
33190;SDS011;19554;42.652;23.364;2023-02-08T04:33:24;58.78;;;31.85;;
33190;SDS011;19554;42.652;23.364;2023-02-08T04:35:49;53.10;;;30.98;;
33190;SDS011;19554;42.652;23.364;2023-02-08T04:38:16;64.78;;;33.63;;
33190;SDS011;19554;42.652;23.364;2023-02-08T04:40:41;62.75;;;34.42;;
33190;SDS011;19554;42.652;23.364;2023-02-08T04:43:06;61.33;;;34.03;;
33190;SDS011;19554;42.652;23.364;2023-02-08T04:45:32;62.22;;;33.78;;
33190;SDS011;19554;42.652;23.364;2023-02-08T04:47:59;57.35;;;34.08;;
33190;SDS011;19554;42.652;23.364;2023-02-08T04:50:25;54.72;;;30.10;;
33190;SDS011;19554;42.652;23.364;2023-02-08T04:52:51;54.85;;;30.98;;
33190;SDS011;19554;42.652;23.364;2023-02-08T04:55:16;58.00;;;32.92;;
33190;SDS011;19554;42.652;23.364;2023-02-08T04:57:42;57.92;;;31.35;;
33190;SDS011;19554;42.652;23.364;2023-02-08T05:00:07;58.78;;;32.75;;
33190;SDS011;19554;42.652;23.364;2023-02-08T05:02:33;59.42;;;33.55;;
33190;SDS011;19554;42.652;23.364;2023-02-08T05:04:58;59.72;;;32.42;;
33190;SDS011;19554;42.652;23.364;2023-02-08T05:07:24;54.38;;;31.60;;
33190;SDS011;19554;42.652;23.364;2023-02-08T05:09:49;55.60;;;32.20;;
33190;SDS011;19554;42.652;23.364;2023-02-08T05:12:14;62.13;;;32.63;;
33190;SDS011;19554;42.652;23.364;2023-02-08T05:14:40;60.83;;;32.97;;
33190;SDS011;19554;42.652;23.364;2023-02-08T05:17:05;66.13;;;35.38;;
33190;SDS011;19554;42.652;23.364;2023-02-08T05:19:31;63.90;;;34.58;;
33190;SDS011;19554;42.652;23.364;2023-02-08T05:21:56;57.05;;;33.35;;
33190;SDS011;19554;42.652;23.364;2023-02-08T05:24:22;65.68;;;34.95;;
33190;SDS011;19554;42.652;23.364;2023-02-08T05:26:47;66.35;;;35.42;;
33190;SDS011;19554;42.652;23.364;2023-02-08T05:29:12;63.22;;;34.80;;
33190;SDS011;19554;42.652;23.364;2023-02-08T05:31:39;57.67;;;32.97;;
33190;SDS011;19554;42.652;23.364;2023-02-08T05:34:04;69.63;;;39.60;;
33190;SDS011;19554;42.652;23.364;2023-02-08T05:36:30;67.07;;;36.08;;
33190;SDS011;19554;42.652;23.364;2023-02-08T05:38:55;63.67;;;34.63;;
33190;SDS011;19554;42.652;23.364;2023-02-08T05:41:21;68.35;;;36.72;;
33190;SDS011;19554;42.652;23.364;2023-02-08T05:43:46;63.50;;;35.28;;
33190;SDS011;19554;42.652;23.364;2023-02-08T05:46:11;63.45;;;34.08;;
33190;SDS011;19554;42.652;23.364;2023-02-08T05:48:37;68.85;;;38.78;;
33190;SDS011;19554;42.652;23.364;2023-02-08T05:51:03;68.68;;;38.67;;
33190;SDS011;19554;42.652;23.364;2023-02-08T05:53:28;66.53;;;39.60;;
33190;SDS011;19554;42.652;23.364;2023-02-08T05:55:55;68.85;;;38.50;;
33190;SDS011;19554;42.652;23.364;2023-02-08T05:58:24;69.15;;;38.05;;
33190;SDS011;19554;42.652;23.364;2023-02-08T06:00:50;75.50;;;42.92;;
33190;SDS011;19554;42.652;23.364;2023-02-08T06:03:15;93.07;;;47.28;;
33190;SDS011;19554;42.652;23.364;2023-02-08T06:05:41;84.65;;;43.78;;
33190;SDS011;19554;42.652;23.364;2023-02-08T06:08:07;79.20;;;41.75;;
33190;SDS011;19554;42.652;23.364;2023-02-08T06:10:33;75.90;;;40.35;;
33190;SDS011;19554;42.652;23.364;2023-02-08T06:12:58;78.43;;;40.70;;
33190;SDS011;19554;42.652;23.364;2023-02-08T06:15:24;69.40;;;37.28;;
33190;SDS011;19554;42.652;23.364;2023-02-08T06:17:49;68.43;;;36.60;;
33190;SDS011;19554;42.652;23.364;2023-02-08T06:20:15;67.88;;;36.42;;
33190;SDS011;19554;42.652;23.364;2023-02-08T06:22:40;67.20;;;35.80;;
33190;SDS011;19554;42.652;23.364;2023-02-08T06:25:06;80.18;;;39.40;;
33190;SDS011;19554;42.652;23.364;2023-02-08T06:27:31;84.45;;;39.40;;
33190;SDS011;19554;42.652;23.364;2023-02-08T06:29:57;76.55;;;38.67;;
33190;SDS011;19554;42.652;23.364;2023-02-08T06:32:22;68.90;;;37.10;;
33190;SDS011;19554;42.652;23.364;2023-02-08T06:34:47;59.70;;;32.67;;
33190;SDS011;19554;42.652;23.364;2023-02-08T06:37:15;65.43;;;33.58;;
33190;SDS011;19554;42.652;23.364;2023-02-08T06:39:41;70.35;;;33.35;;
33190;SDS011;19554;42.652;23.364;2023-02-08T06:42:07;63.00;;;33.65;;
33190;SDS011;19554;42.652;23.364;2023-02-08T06:44:32;59.05;;;34.25;;
33190;SDS011;19554;42.652;23.364;2023-02-08T06:46:58;65.97;;;35.42;;
33190;SDS011;19554;42.652;23.364;2023-02-08T06:49:23;66.32;;;35.83;;
33190;SDS011;19554;42.652;23.364;2023-02-08T06:51:49;65.95;;;35.05;;
33190;SDS011;19554;42.652;23.364;2023-02-08T06:54:14;65.13;;;35.13;;
33190;SDS011;19554;42.652;23.364;2023-02-08T06:56:39;71.40;;;37.13;;
33190;SDS011;19554;42.652;23.364;2023-02-08T06:59:05;68.10;;;35.08;;
33190;SDS011;19554;42.652;23.364;2023-02-08T07:01:31;72.13;;;37.92;;
33190;SDS011;19554;42.652;23.364;2023-02-08T07:03:56;73.65;;;40.97;;
33190;SDS011;19554;42.652;23.364;2023-02-08T07:06:21;72.05;;;40.00;;
33190;SDS011;19554;42.652;23.364;2023-02-08T07:08:47;75.65;;;39.72;;
33190;SDS011;19554;42.652;23.364;2023-02-08T07:11:13;70.05;;;39.13;;
33190;SDS011;19554;42.652;23.364;2023-02-08T07:13:41;67.35;;;37.70;;
33190;SDS011;19554;42.652;23.364;2023-02-08T07:16:07;71.22;;;36.72;;
33190;SDS011;19554;42.652;23.364;2023-02-08T07:18:34;66.18;;;35.85;;
33190;SDS011;19554;42.652;23.364;2023-02-08T07:21:00;73.00;;;36.67;;
33190;SDS011;19554;42.652;23.364;2023-02-08T07:23:26;73.78;;;40.15;;
33190;SDS011;19554;42.652;23.364;2023-02-08T07:25:55;70.68;;;37.25;;
33190;SDS011;19554;42.652;23.364;2023-02-08T07:28:25;74.75;;;39.33;;
33190;SDS011;19554;42.652;23.364;2023-02-08T07:30:50;70.00;;;39.13;;
33190;SDS011;19554;42.652;23.364;2023-02-08T07:33:16;76.03;;;40.75;;
33190;SDS011;19554;42.652;23.364;2023-02-08T07:35:41;73.65;;;37.83;;
33190;SDS011;19554;42.652;23.364;2023-02-08T07:38:06;70.28;;;38.97;;
33190;SDS011;19554;42.652;23.364;2023-02-08T07:40:32;73.70;;;38.13;;
33190;SDS011;19554;42.652;23.364;2023-02-08T07:42:57;72.78;;;38.90;;
33190;SDS011;19554;42.652;23.364;2023-02-08T07:45:22;72.68;;;38.75;;
33190;SDS011;19554;42.652;23.364;2023-02-08T07:47:48;72.32;;;38.67;;
33190;SDS011;19554;42.652;23.364;2023-02-08T07:50:14;75.55;;;38.20;;
33190;SDS011;19554;42.652;23.364;2023-02-08T07:52:40;71.05;;;36.15;;
33190;SDS011;19554;42.652;23.364;2023-02-08T07:55:08;66.72;;;35.63;;
33190;SDS011;19554;42.652;23.364;2023-02-08T07:57:35;63.22;;;34.03;;
33190;SDS011;19554;42.652;23.364;2023-02-08T08:00:01;65.38;;;34.40;;
33190;SDS011;19554;42.652;23.364;2023-02-08T08:02:27;61.15;;;33.25;;
33190;SDS011;19554;42.652;23.364;2023-02-08T08:04:52;63.70;;;34.95;;
33190;SDS011;19554;42.652;23.364;2023-02-08T08:07:18;65.28;;;34.33;;
33190;SDS011;19554;42.652;23.364;2023-02-08T08:09:43;59.95;;;33.75;;
33190;SDS011;19554;42.652;23.364;2023-02-08T08:12:09;67.38;;;34.75;;
33190;SDS011;19554;42.652;23.364;2023-02-08T08:14:34;63.45;;;33.17;;
33190;SDS011;19554;42.652;23.364;2023-02-08T08:17:00;60.67;;;32.63;;
33190;SDS011;19554;42.652;23.364;2023-02-08T08:19:25;56.78;;;33.35;;
33190;SDS011;19554;42.652;23.364;2023-02-08T08:21:50;58.92;;;31.92;;
33190;SDS011;19554;42.652;23.364;2023-02-08T08:24:16;64.90;;;34.03;;
33190;SDS011;19554;42.652;23.364;2023-02-08T08:26:41;62.05;;;33.70;;
33190;SDS011;19554;42.652;23.364;2023-02-08T08:29:06;64.82;;;34.65;;
33190;SDS011;19554;42.652;23.364;2023-02-08T08:31:32;57.35;;;30.40;;
33190;SDS011;19554;42.652;23.364;2023-02-08T08:33:57;54.72;;;30.05;;
33190;SDS011;19554;42.652;23.364;2023-02-08T08:36:23;55.40;;;29.33;;
33190;SDS011;19554;42.652;23.364;2023-02-08T08:38:48;64.97;;;35.28;;
33190;SDS011;19554;42.652;23.364;2023-02-08T08:41:14;43.92;;;25.95;;
33190;SDS011;19554;42.652;23.364;2023-02-08T08:43:46;44.33;;;24.67;;
33190;SDS011;19554;42.652;23.364;2023-02-08T08:46:11;49.58;;;25.10;;
33190;SDS011;19554;42.652;23.364;2023-02-08T08:48:37;47.17;;;26.27;;
33190;SDS011;19554;42.652;23.364;2023-02-08T08:51:03;49.97;;;24.67;;
33190;SDS011;19554;42.652;23.364;2023-02-08T08:53:28;45.80;;;26.20;;
33190;SDS011;19554;42.652;23.364;2023-02-08T08:55:54;57.95;;;29.08;;
33190;SDS011;19554;42.652;23.364;2023-02-08T08:58:19;56.22;;;29.05;;
33190;SDS011;19554;42.652;23.364;2023-02-08T09:00:45;53.88;;;27.70;;
33190;SDS011;19554;42.652;23.364;2023-02-08T09:03:10;53.60;;;30.67;;
33190;SDS011;19554;42.652;23.364;2023-02-08T09:05:36;57.28;;;29.50;;
33190;SDS011;19554;42.652;23.364;2023-02-08T09:08:01;57.60;;;30.55;;
33190;SDS011;19554;42.652;23.364;2023-02-08T09:10:27;57.33;;;31.23;;
33190;SDS011;19554;42.652;23.364;2023-02-08T09:12:53;57.22;;;31.02;;
33190;SDS011;19554;42.652;23.364;2023-02-08T09:15:18;67.25;;;32.47;;
33190;SDS011;19554;42.652;23.364;2023-02-08T09:17:44;59.60;;;29.23;;
33190;SDS011;19554;42.652;23.364;2023-02-08T09:20:09;44.92;;;25.65;;
33190;SDS011;19554;42.652;23.364;2023-02-08T09:22:35;48.83;;;24.20;;
33190;SDS011;19554;42.652;23.364;2023-02-08T09:25:00;42.50;;;23.20;;
33190;SDS011;19554;42.652;23.364;2023-02-08T09:27:26;38.75;;;20.92;;
33190;SDS011;19554;42.652;23.364;2023-02-08T09:29:53;40.33;;;22.58;;
33190;SDS011;19554;42.652;23.364;2023-02-08T09:32:18;37.63;;;22.20;;
33190;SDS011;19554;42.652;23.364;2023-02-08T09:34:45;40.65;;;22.02;;
33190;SDS011;19554;42.652;23.364;2023-02-08T09:37:10;39.72;;;22.05;;
33190;SDS011;19554;42.652;23.364;2023-02-08T09:39:36;40.10;;;22.80;;
33190;SDS011;19554;42.652;23.364;2023-02-08T09:53:31;33.60;;;16.75;;
33190;SDS011;19554;42.652;23.364;2023-02-08T09:56:04;35.65;;;18.30;;
33190;SDS011;19554;42.652;23.364;2023-02-08T09:58:43;34.22;;;17.95;;
33190;SDS011;19554;42.652;23.364;2023-02-08T10:03:52;30.95;;;16.42;;
33190;SDS011;19554;42.652;23.364;2023-02-08T10:06:22;32.90;;;18.25;;
33190;SDS011;19554;42.652;23.364;2023-02-08T10:08:49;38.78;;;18.98;;
33190;SDS011;19554;42.652;23.364;2023-02-08T10:14:16;38.33;;;20.15;;
33190;SDS011;19554;42.652;23.364;2023-02-08T10:17:41;40.45;;;19.98;;
33190;SDS011;19554;42.652;23.364;2023-02-08T10:25:19;28.67;;;14.90;;
33190;SDS011;19554;42.652;23.364;2023-02-08T10:33:17;37.95;;;18.80;;
33190;SDS011;19554;42.652;23.364;2023-02-08T10:35:49;36.17;;;19.67;;
33190;SDS011;19554;42.652;23.364;2023-02-08T10:40:44;39.95;;;19.23;;
33190;SDS011;19554;42.652;23.364;2023-02-08T10:48:30;36.25;;;17.83;;
33190;SDS011;19554;42.652;23.364;2023-02-08T10:50:58;41.03;;;17.55;;
33190;SDS011;19554;42.652;23.364;2023-02-08T10:53:24;34.20;;;18.08;;
33190;SDS011;19554;42.652;23.364;2023-02-08T10:55:49;42.75;;;19.52;;
33190;SDS011;19554;42.652;23.364;2023-02-08T10:58:16;36.85;;;20.20;;
33190;SDS011;19554;42.652;23.364;2023-02-08T11:00:44;34.47;;;19.15;;
33190;SDS011;19554;42.652;23.364;2023-02-08T11:03:15;35.65;;;19.40;;
33190;SDS011;19554;42.652;23.364;2023-02-08T11:05:50;42.95;;;21.25;;
33190;SDS011;19554;42.652;23.364;2023-02-08T11:08:16;41.10;;;21.75;;
33190;SDS011;19554;42.652;23.364;2023-02-08T11:10:45;35.88;;;19.17;;
33190;SDS011;19554;42.652;23.364;2023-02-08T11:13:24;40.27;;;19.43;;
33190;SDS011;19554;42.652;23.364;2023-02-08T11:16:12;30.70;;;17.20;;
33190;SDS011;19554;42.652;23.364;2023-02-08T11:19:04;29.88;;;15.38;;
33190;SDS011;19554;42.652;23.364;2023-02-08T11:21:35;29.23;;;16.40;;
33190;SDS011;19554;42.652;23.364;2023-02-08T11:32:40;26.88;;;16.38;;
33190;SDS011;19554;42.652;23.364;2023-02-08T11:37:46;27.55;;;14.68;;
33190;SDS011;19554;42.652;23.364;2023-02-08T11:40:17;25.15;;;15.25;;
33190;SDS011;19554;42.652;23.364;2023-02-08T11:42:47;25.45;;;15.10;;
33190;SDS011;19554;42.652;23.364;2023-02-08T11:45:18;27.75;;;14.27;;
33190;SDS011;19554;42.652;23.364;2023-02-08T11:47:46;29.88;;;16.02;;
33190;SDS011;19554;42.652;23.364;2023-02-08T11:50:20;26.67;;;15.80;;
33190;SDS011;19554;42.652;23.364;2023-02-08T11:52:56;30.08;;;16.80;;
33190;SDS011;19554;42.652;23.364;2023-02-08T11:55:25;29.92;;;16.90;;
33190;SDS011;19554;42.652;23.364;2023-02-08T11:57:57;27.13;;;14.43;;
33190;SDS011;19554;42.652;23.364;2023-02-08T12:00:26;24.48;;;14.00;;
33190;SDS011;19554;42.652;23.364;2023-02-08T12:03:01;21.23;;;12.48;;
33190;SDS011;19554;42.652;23.364;2023-02-08T12:05:34;23.35;;;12.48;;
33190;SDS011;19554;42.652;23.364;2023-02-08T12:18:38;24.77;;;14.15;;
33190;SDS011;19554;42.652;23.364;2023-02-08T12:21:11;24.35;;;14.55;;
33190;SDS011;19554;42.652;23.364;2023-02-08T12:34:18;25.40;;;13.90;;
33190;SDS011;19554;42.652;23.364;2023-02-08T12:48:59;20.17;;;11.55;;
33190;SDS011;19554;42.652;23.364;2023-02-08T12:54:30;16.63;;;9.63;;
33190;SDS011;19554;42.652;23.364;2023-02-08T12:57:01;16.20;;;9.90;;
33190;SDS011;19554;42.652;23.364;2023-02-08T12:59:40;17.33;;;10.55;;
33190;SDS011;19554;42.652;23.364;2023-02-08T13:02:12;17.42;;;9.30;;
33190;SDS011;19554;42.652;23.364;2023-02-08T13:05:10;17.90;;;9.50;;
33190;SDS011;19554;42.652;23.364;2023-02-08T13:07:43;19.40;;;9.38;;
33190;SDS011;19554;42.652;23.364;2023-02-08T13:13:15;20.40;;;9.05;;
33190;SDS011;19554;42.652;23.364;2023-02-08T13:15:45;15.57;;;8.63;;
33190;SDS011;19554;42.652;23.364;2023-02-08T13:18:23;14.50;;;8.60;;
33190;SDS011;19554;42.652;23.364;2023-02-08T13:20:55;13.82;;;8.68;;
33190;SDS011;19554;42.652;23.364;2023-02-08T13:23:27;14.85;;;8.15;;
33190;SDS011;19554;42.652;23.364;2023-02-08T13:26:02;15.68;;;8.07;;
33190;SDS011;19554;42.652;23.364;2023-02-08T13:28:33;16.25;;;9.35;;
33190;SDS011;19554;42.652;23.364;2023-02-08T13:31:45;17.38;;;9.00;;
33190;SDS011;19554;42.652;23.364;2023-02-08T13:33:58;21.73;;;10.45;;
33190;SDS011;19554;42.652;23.364;2023-02-08T13:36:33;15.13;;;8.93;;
33190;SDS011;19554;42.652;23.364;2023-02-08T13:39:02;21.90;;;8.32;;
33190;SDS011;19554;42.652;23.364;2023-02-08T13:41:32;13.35;;;7.90;;
33190;SDS011;19554;42.652;23.364;2023-02-08T13:44:02;10.98;;;7.30;;
33190;SDS011;19554;42.652;23.364;2023-02-08T13:46:39;13.05;;;8.30;;
33190;SDS011;19554;42.652;23.364;2023-02-08T13:52:44;16.88;;;8.40;;
33190;SDS011;19554;42.652;23.364;2023-02-08T14:05:53;15.77;;;9.70;;
33190;SDS011;19554;42.652;23.364;2023-02-08T14:14:19;15.88;;;8.68;;
33190;SDS011;19554;42.652;23.364;2023-02-08T14:19:34;16.73;;;9.52;;
33190;SDS011;19554;42.652;23.364;2023-02-08T14:22:02;18.83;;;10.05;;
33190;SDS011;19554;42.652;23.364;2023-02-08T14:24:31;17.53;;;10.73;;
33190;SDS011;19554;42.652;23.364;2023-02-08T14:27:07;18.25;;;10.02;;
33190;SDS011;19554;42.652;23.364;2023-02-08T14:29:35;19.27;;;11.52;;
33190;SDS011;19554;42.652;23.364;2023-02-08T14:32:01;17.58;;;10.50;;
33190;SDS011;19554;42.652;23.364;2023-02-08T14:37:00;17.80;;;10.88;;
33190;SDS011;19554;42.652;23.364;2023-02-08T14:39:31;22.58;;;11.57;;
33190;SDS011;19554;42.652;23.364;2023-02-08T14:49:48;20.10;;;12.18;;
33190;SDS011;19554;42.652;23.364;2023-02-08T14:52:19;24.63;;;13.35;;
33190;SDS011;19554;42.652;23.364;2023-02-08T14:54:55;22.88;;;12.20;;
33190;SDS011;19554;42.652;23.364;2023-02-08T14:57:31;23.15;;;13.00;;
33190;SDS011;19554;42.652;23.364;2023-02-08T15:00:00;22.73;;;12.60;;
33190;SDS011;19554;42.652;23.364;2023-02-08T15:02:29;21.48;;;12.40;;
33190;SDS011;19554;42.652;23.364;2023-02-08T15:04:58;20.65;;;11.13;;
33190;SDS011;19554;42.652;23.364;2023-02-08T15:10:01;23.30;;;11.82;;
33190;SDS011;19554;42.652;23.364;2023-02-08T15:12:29;23.70;;;13.25;;
33190;SDS011;19554;42.652;23.364;2023-02-08T15:14:58;30.75;;;13.23;;
33190;SDS011;19554;42.652;23.364;2023-02-08T15:19:51;22.35;;;12.25;;
33190;SDS011;19554;42.652;23.364;2023-02-08T15:24:53;19.25;;;11.02;;
33190;SDS011;19554;42.652;23.364;2023-02-08T15:27:29;23.88;;;12.43;;
33190;SDS011;19554;42.652;23.364;2023-02-08T15:29:56;21.73;;;12.82;;
33190;SDS011;19554;42.652;23.364;2023-02-08T15:32:23;20.38;;;11.73;;
33190;SDS011;19554;42.652;23.364;2023-02-08T15:34:54;20.30;;;12.27;;
33190;SDS011;19554;42.652;23.364;2023-02-08T15:37:21;22.73;;;11.25;;
33190;SDS011;19554;42.652;23.364;2023-02-08T15:39:48;21.05;;;11.88;;
33190;SDS011;19554;42.652;23.364;2023-02-08T15:42:17;21.45;;;11.75;;
33190;SDS011;19554;42.652;23.364;2023-02-08T15:44:47;22.83;;;12.23;;
33190;SDS011;19554;42.652;23.364;2023-02-08T15:47:34;18.35;;;11.55;;
33190;SDS011;19554;42.652;23.364;2023-02-08T15:50:01;22.25;;;12.35;;
33190;SDS011;19554;42.652;23.364;2023-02-08T15:52:31;19.58;;;11.77;;
33190;SDS011;19554;42.652;23.364;2023-02-08T15:54:59;26.40;;;12.73;;
33190;SDS011;19554;42.652;23.364;2023-02-08T15:57:41;23.23;;;12.65;;
33190;SDS011;19554;42.652;23.364;2023-02-08T16:00:15;21.50;;;12.55;;
33190;SDS011;19554;42.652;23.364;2023-02-08T16:02:43;19.75;;;11.70;;
33190;SDS011;19554;42.652;23.364;2023-02-08T16:05:19;21.27;;;11.20;;
33190;SDS011;19554;42.652;23.364;2023-02-08T16:07:46;30.98;;;12.55;;
33190;SDS011;19554;42.652;23.364;2023-02-08T16:10:21;22.10;;;12.07;;
33190;SDS011;19554;42.652;23.364;2023-02-08T16:12:50;19.27;;;11.30;;
33190;SDS011;19554;42.652;23.364;2023-02-08T16:18:34;19.63;;;11.40;;
33190;SDS011;19554;42.652;23.364;2023-02-08T16:21:05;20.93;;;12.77;;
33190;SDS011;19554;42.652;23.364;2023-02-08T16:23:47;21.17;;;12.45;;
33190;SDS011;19554;42.652;23.364;2023-02-08T16:26:19;21.92;;;12.43;;
33190;SDS011;19554;42.652;23.364;2023-02-08T16:28:57;18.25;;;11.07;;
33190;SDS011;19554;42.652;23.364;2023-02-08T16:31:26;16.70;;;10.82;;
33190;SDS011;19554;42.652;23.364;2023-02-08T16:34:01;20.35;;;11.52;;
33190;SDS011;19554;42.652;23.364;2023-02-08T16:36:30;20.25;;;11.55;;
33190;SDS011;19554;42.652;23.364;2023-02-08T16:42:01;24.40;;;11.63;;
33190;SDS011;19554;42.652;23.364;2023-02-08T16:44:33;20.73;;;11.43;;
33190;SDS011;19554;42.652;23.364;2023-02-08T16:47:01;19.55;;;11.07;;
33190;SDS011;19554;42.652;23.364;2023-02-08T16:49:50;18.58;;;11.43;;
33190;SDS011;19554;42.652;23.364;2023-02-08T16:52:15;19.80;;;11.10;;
33190;SDS011;19554;42.652;23.364;2023-02-08T16:54:41;23.38;;;12.88;;
33190;SDS011;19554;42.652;23.364;2023-02-08T16:57:06;24.63;;;14.45;;
33190;SDS011;19554;42.652;23.364;2023-02-08T16:59:33;29.63;;;15.43;;
33190;SDS011;19554;42.652;23.364;2023-02-08T17:01:58;30.23;;;16.02;;
33190;SDS011;19554;42.652;23.364;2023-02-08T17:04:24;27.38;;;14.55;;
33190;SDS011;19554;42.652;23.364;2023-02-08T17:06:49;25.63;;;14.40;;